sensor_id;sensor_type;location;lat;lon;timestamp;pressure;altitude;pressure_sealevel;temperature;humidity
36190;BME280;22232;50.914;13.858;2024-01-07T00:01:26;97514.59;;;-2.08;100.00
36190;BME280;22232;50.914;13.858;2024-01-07T00:03:53;97518.34;;;-2.11;100.00
36190;BME280;22232;50.914;13.858;2024-01-07T00:06:21;97515.91;;;-2.12;100.00
36190;BME280;22232;50.914;13.858;2024-01-07T00:08:49;97521.75;;;-2.18;100.00
36190;BME280;22232;50.914;13.858;2024-01-07T00:11:16;97517.34;;;-2.18;100.00
36190;BME280;22232;50.914;13.858;2024-01-07T00:13:45;97512.47;;;-2.04;100.00
36190;BME280;22232;50.914;13.858;2024-01-07T00:16:13;97517.34;;;-2.18;100.00
36190;BME280;22232;50.914;13.858;2024-01-07T00:18:41;97514.13;;;-2.03;100.00
36190;BME280;22232;50.914;13.858;2024-01-07T00:21:09;97518.97;;;-2.17;100.00
36190;BME280;22232;50.914;13.858;2024-01-07T00:23:36;97519.66;;;-2.15;100.00
36190;BME280;22232;50.914;13.858;2024-01-07T00:26:04;97525.81;;;-2.24;100.00
36190;BME280;22232;50.914;13.858;2024-01-07T00:28:31;97534.31;;;-2.22;100.00
36190;BME280;22232;50.914;13.858;2024-01-07T00:30:59;97531.53;;;-2.20;100.00
36190;BME280;22232;50.914;13.858;2024-01-07T00:33:27;97532.97;;;-2.26;100.00
36190;BME280;22232;50.914;13.858;2024-01-07T00:35:55;97538.56;;;-2.21;100.00
36190;BME280;22232;50.914;13.858;2024-01-07T00:38:23;97534.50;;;-2.15;100.00
36190;BME280;22232;50.914;13.858;2024-01-07T00:40:50;97535.28;;;-2.23;100.00
36190;BME280;22232;50.914;13.858;2024-01-07T00:43:18;97553.41;;;-2.21;100.00
36190;BME280;22232;50.914;13.858;2024-01-07T00:45:46;97545.16;;;-2.09;100.00
36190;BME280;22232;50.914;13.858;2024-01-07T00:48:14;97547.72;;;-2.17;100.00
36190;BME280;22232;50.914;13.858;2024-01-07T00:50:42;97542.47;;;-2.17;100.00
36190;BME280;22232;50.914;13.858;2024-01-07T00:53:10;97542.53;;;-2.09;100.00
36190;BME280;22232;50.914;13.858;2024-01-07T00:55:38;97544.50;;;-2.02;100.00
36190;BME280;22232;50.914;13.858;2024-01-07T00:58:06;97539.66;;;-1.97;100.00
36190;BME280;22232;50.914;13.858;2024-01-07T01:00:33;97541.84;;;-2.11;100.00
36190;BME280;22232;50.914;13.858;2024-01-07T01:03:01;97540.38;;;-2.13;100.00
36190;BME280;22232;50.914;13.858;2024-01-07T01:05:28;97540.06;;;-2.10;100.00
36190;BME280;22232;50.914;13.858;2024-01-07T01:07:56;97551.84;;;-2.06;100.00
36190;BME280;22232;50.914;13.858;2024-01-07T01:10:24;97552.50;;;-2.38;100.00
36190;BME280;22232;50.914;13.858;2024-01-07T01:12:52;97557.16;;;-2.24;100.00
36190;BME280;22232;50.914;13.858;2024-01-07T01:15:21;97547.13;;;-2.37;100.00
36190;BME280;22232;50.914;13.858;2024-01-07T01:17:49;97555.22;;;-2.48;100.00
36190;BME280;22232;50.914;13.858;2024-01-07T01:20:17;97555.78;;;-2.36;100.00
36190;BME280;22232;50.914;13.858;2024-01-07T01:22:44;97566.50;;;-2.13;100.00
36190;BME280;22232;50.914;13.858;2024-01-07T01:25:12;97567.84;;;-2.09;100.00
36190;BME280;22232;50.914;13.858;2024-01-07T01:27:40;97566.81;;;-2.16;100.00
36190;BME280;22232;50.914;13.858;2024-01-07T01:30:08;97568.47;;;-2.15;100.00
36190;BME280;22232;50.914;13.858;2024-01-07T01:32:36;97573.72;;;-2.07;100.00
36190;BME280;22232;50.914;13.858;2024-01-07T01:35:05;97569.03;;;-1.95;100.00
36190;BME280;22232;50.914;13.858;2024-01-07T01:37:33;97574.06;;;-2.02;100.00
36190;BME280;22232;50.914;13.858;2024-01-07T01:40:00;97564.81;;;-2.22;100.00
36190;BME280;22232;50.914;13.858;2024-01-07T01:42:28;97569.34;;;-1.98;100.00
36190;BME280;22232;50.914;13.858;2024-01-07T01:44:56;97569.44;;;-1.82;100.00
36190;BME280;22232;50.914;13.858;2024-01-07T01:47:29;97569.06;;;-1.87;100.00
36190;BME280;22232;50.914;13.858;2024-01-07T01:49:58;97570.41;;;-2.17;100.00
36190;BME280;22232;50.914;13.858;2024-01-07T01:52:27;97584.16;;;-2.15;100.00
36190;BME280;22232;50.914;13.858;2024-01-07T01:54:55;97586.94;;;-2.09;100.00
36190;BME280;22232;50.914;13.858;2024-01-07T01:57:24;97585.19;;;-2.34;100.00
36190;BME280;22232;50.914;13.858;2024-01-07T01:59:56;97594.03;;;-2.27;100.00
36190;BME280;22232;50.914;13.858;2024-01-07T02:02:23;97592.19;;;-2.35;100.00
36190;BME280;22232;50.914;13.858;2024-01-07T02:04:51;97595.41;;;-2.15;100.00
36190;BME280;22232;50.914;13.858;2024-01-07T02:07:19;97588.00;;;-2.27;100.00
36190;BME280;22232;50.914;13.858;2024-01-07T02:09:47;97597.03;;;-2.22;100.00
36190;BME280;22232;50.914;13.858;2024-01-07T02:12:14;97597.84;;;-2.13;100.00
36190;BME280;22232;50.914;13.858;2024-01-07T02:14:42;97596.47;;;-2.25;100.00
36190;BME280;22232;50.914;13.858;2024-01-07T02:17:09;97609.97;;;-2.38;100.00
36190;BME280;22232;50.914;13.858;2024-01-07T02:19:37;97617.34;;;-2.34;100.00
36190;BME280;22232;50.914;13.858;2024-01-07T02:22:05;97610.13;;;-2.40;100.00
36190;BME280;22232;50.914;13.858;2024-01-07T02:24:33;97620.06;;;-2.43;100.00
36190;BME280;22232;50.914;13.858;2024-01-07T02:27:01;97627.91;;;-2.43;100.00
36190;BME280;22232;50.914;13.858;2024-01-07T02:29:30;97618.06;;;-2.49;100.00
36190;BME280;22232;50.914;13.858;2024-01-07T02:31:57;97623.28;;;-2.49;100.00
36190;BME280;22232;50.914;13.858;2024-01-07T02:34:25;97626.03;;;-2.51;100.00
36190;BME280;22232;50.914;13.858;2024-01-07T02:36:53;97622.44;;;-2.50;100.00
36190;BME280;22232;50.914;13.858;2024-01-07T02:39:21;97640.28;;;-2.45;100.00
36190;BME280;22232;50.914;13.858;2024-01-07T02:41:49;97620.72;;;-2.41;100.00
36190;BME280;22232;50.914;13.858;2024-01-07T02:44:17;97618.31;;;-2.61;100.00
36190;BME280;22232;50.914;13.858;2024-01-07T02:46:44;97632.88;;;-2.76;100.00
36190;BME280;22232;50.914;13.858;2024-01-07T02:49:13;97625.69;;;-2.74;100.00
36190;BME280;22232;50.914;13.858;2024-01-07T02:51:41;97625.50;;;-2.81;100.00
36190;BME280;22232;50.914;13.858;2024-01-07T02:54:10;97633.59;;;-2.66;100.00
36190;BME280;22232;50.914;13.858;2024-01-07T02:56:37;97631.50;;;-2.62;100.00
36190;BME280;22232;50.914;13.858;2024-01-07T02:59:05;97643.84;;;-2.72;100.00
36190;BME280;22232;50.914;13.858;2024-01-07T03:01:33;97639.72;;;-2.75;100.00
36190;BME280;22232;50.914;13.858;2024-01-07T03:04:10;97636.44;;;-2.77;100.00
36190;BME280;22232;50.914;13.858;2024-01-07T03:06:38;97632.06;;;-2.77;100.00
36190;BME280;22232;50.914;13.858;2024-01-07T03:09:06;97631.81;;;-2.65;100.00
36190;BME280;22232;50.914;13.858;2024-01-07T03:11:39;97629.75;;;-2.62;100.00
36190;BME280;22232;50.914;13.858;2024-01-07T03:14:07;97634.78;;;-2.60;100.00
36190;BME280;22232;50.914;13.858;2024-01-07T03:16:35;97646.81;;;-2.67;100.00
36190;BME280;22232;50.914;13.858;2024-01-07T03:19:02;97656.97;;;-2.64;100.00
36190;BME280;22232;50.914;13.858;2024-01-07T03:21:32;97623.84;;;-2.64;100.00
36190;BME280;22232;50.914;13.858;2024-01-07T03:23:59;97636.00;;;-2.72;100.00
36190;BME280;22232;50.914;13.858;2024-01-07T03:26:30;97656.00;;;-2.81;100.00
36190;BME280;22232;50.914;13.858;2024-01-07T03:29:00;97653.47;;;-2.73;100.00
36190;BME280;22232;50.914;13.858;2024-01-07T03:31:29;97653.56;;;-2.83;100.00
36190;BME280;22232;50.914;13.858;2024-01-07T03:33:57;97646.06;;;-2.78;100.00
36190;BME280;22232;50.914;13.858;2024-01-07T03:36:26;97647.47;;;-2.65;100.00
36190;BME280;22232;50.914;13.858;2024-01-07T03:38:53;97659.88;;;-2.67;100.00
36190;BME280;22232;50.914;13.858;2024-01-07T03:41:21;97657.28;;;-2.85;100.00
36190;BME280;22232;50.914;13.858;2024-01-07T03:43:49;97652.56;;;-2.82;100.00
36190;BME280;22232;50.914;13.858;2024-01-07T03:46:17;97662.88;;;-2.98;100.00
36190;BME280;22232;50.914;13.858;2024-01-07T03:48:46;97679.69;;;-2.92;100.00
36190;BME280;22232;50.914;13.858;2024-01-07T03:51:13;97661.91;;;-2.79;100.00
36190;BME280;22232;50.914;13.858;2024-01-07T03:53:41;97662.84;;;-2.80;100.00
36190;BME280;22232;50.914;13.858;2024-01-07T03:56:09;97665.69;;;-2.91;100.00
36190;BME280;22232;50.914;13.858;2024-01-07T03:58:36;97670.63;;;-2.88;100.00
36190;BME280;22232;50.914;13.858;2024-01-07T04:01:04;97657.88;;;-2.73;100.00
36190;BME280;22232;50.914;13.858;2024-01-07T04:03:32;97672.56;;;-2.72;100.00
36190;BME280;22232;50.914;13.858;2024-01-07T04:06:00;97682.09;;;-2.81;100.00
36190;BME280;22232;50.914;13.858;2024-01-07T04:08:28;97675.84;;;-2.88;100.00
36190;BME280;22232;50.914;13.858;2024-01-07T04:10:56;97673.88;;;-2.86;100.00
36190;BME280;22232;50.914;13.858;2024-01-07T04:13:23;97668.44;;;-2.75;100.00
36190;BME280;22232;50.914;13.858;2024-01-07T04:15:51;97683.41;;;-2.59;100.00
36190;BME280;22232;50.914;13.858;2024-01-07T04:18:19;97684.00;;;-2.47;100.00
36190;BME280;22232;50.914;13.858;2024-01-07T04:20:46;97676.63;;;-2.52;100.00
36190;BME280;22232;50.914;13.858;2024-01-07T04:23:14;97681.06;;;-2.70;100.00
36190;BME280;22232;50.914;13.858;2024-01-07T04:25:41;97675.53;;;-2.85;100.00
36190;BME280;22232;50.914;13.858;2024-01-07T04:28:11;97689.09;;;-2.82;100.00
36190;BME280;22232;50.914;13.858;2024-01-07T04:30:39;97685.91;;;-2.75;100.00
36190;BME280;22232;50.914;13.858;2024-01-07T04:33:07;97683.41;;;-2.77;100.00
36190;BME280;22232;50.914;13.858;2024-01-07T04:35:34;97689.09;;;-3.00;100.00
36190;BME280;22232;50.914;13.858;2024-01-07T04:38:03;97679.56;;;-2.91;100.00
36190;BME280;22232;50.914;13.858;2024-01-07T04:40:30;97691.25;;;-2.77;100.00
36190;BME280;22232;50.914;13.858;2024-01-07T04:42:58;97691.72;;;-2.64;100.00
36190;BME280;22232;50.914;13.858;2024-01-07T04:45:26;97688.72;;;-2.69;100.00
36190;BME280;22232;50.914;13.858;2024-01-07T04:47:53;97693.88;;;-2.77;100.00
36190;BME280;22232;50.914;13.858;2024-01-07T04:50:21;97697.31;;;-2.94;100.00
36190;BME280;22232;50.914;13.858;2024-01-07T04:52:48;97697.31;;;-2.94;100.00
36190;BME280;22232;50.914;13.858;2024-01-07T04:55:16;97697.59;;;-2.97;100.00
36190;BME280;22232;50.914;13.858;2024-01-07T04:57:44;97704.97;;;-2.93;100.00
36190;BME280;22232;50.914;13.858;2024-01-07T05:00:12;97699.69;;;-2.83;100.00
36190;BME280;22232;50.914;13.858;2024-01-07T05:02:39;97707.94;;;-3.06;100.00
36190;BME280;22232;50.914;13.858;2024-01-07T05:05:10;97707.44;;;-3.09;100.00
36190;BME280;22232;50.914;13.858;2024-01-07T05:07:38;97698.34;;;-3.05;100.00
36190;BME280;22232;50.914;13.858;2024-01-07T05:10:06;97717.91;;;-2.91;100.00
36190;BME280;22232;50.914;13.858;2024-01-07T05:12:34;97721.16;;;-2.89;100.00
36190;BME280;22232;50.914;13.858;2024-01-07T05:15:01;97719.38;;;-3.07;100.00
36190;BME280;22232;50.914;13.858;2024-01-07T05:17:29;97729.63;;;-3.05;100.00
36190;BME280;22232;50.914;13.858;2024-01-07T05:19:57;97727.25;;;-2.98;100.00
36190;BME280;22232;50.914;13.858;2024-01-07T05:22:25;97721.19;;;-3.17;100.00
36190;BME280;22232;50.914;13.858;2024-01-07T05:24:52;97742.31;;;-3.10;100.00
36190;BME280;22232;50.914;13.858;2024-01-07T05:27:20;97738.66;;;-3.00;100.00
36190;BME280;22232;50.914;13.858;2024-01-07T05:29:48;97734.97;;;-2.97;100.00
36190;BME280;22232;50.914;13.858;2024-01-07T05:32:16;97731.72;;;-3.09;100.00
36190;BME280;22232;50.914;13.858;2024-01-07T05:34:44;97734.28;;;-2.99;100.00
36190;BME280;22232;50.914;13.858;2024-01-07T05:37:12;97735.03;;;-2.89;100.00
36190;BME280;22232;50.914;13.858;2024-01-07T05:39:39;97728.72;;;-3.14;100.00
36190;BME280;22232;50.914;13.858;2024-01-07T05:42:07;97739.34;;;-2.97;100.00
36190;BME280;22232;50.914;13.858;2024-01-07T05:44:34;97741.28;;;-3.00;100.00
36190;BME280;22232;50.914;13.858;2024-01-07T05:47:02;97743.66;;;-3.06;100.00
36190;BME280;22232;50.914;13.858;2024-01-07T05:49:31;97750.44;;;-3.13;100.00
36190;BME280;22232;50.914;13.858;2024-01-07T05:51:59;97743.66;;;-3.06;100.00
36190;BME280;22232;50.914;13.858;2024-01-07T05:54:26;97753.94;;;-3.05;100.00
36190;BME280;22232;50.914;13.858;2024-01-07T05:56:58;97757.00;;;-3.09;100.00
36190;BME280;22232;50.914;13.858;2024-01-07T05:59:26;97762.69;;;-2.96;100.00
36190;BME280;22232;50.914;13.858;2024-01-07T06:01:58;97762.16;;;-3.00;100.00
36190;BME280;22232;50.914;13.858;2024-01-07T06:04:26;97769.88;;;-3.08;100.00
36190;BME280;22232;50.914;13.858;2024-01-07T06:06:54;97781.47;;;-3.20;100.00
36190;BME280;22232;50.914;13.858;2024-01-07T06:09:22;97779.03;;;-3.21;100.00
36190;BME280;22232;50.914;13.858;2024-01-07T06:11:49;97784.94;;;-3.19;100.00
36190;BME280;22232;50.914;13.858;2024-01-07T06:14:17;97783.50;;;-3.14;100.00
36190;BME280;22232;50.914;13.858;2024-01-07T06:16:45;97777.88;;;-3.09;100.00
36190;BME280;22232;50.914;13.858;2024-01-07T06:19:12;97782.44;;;-2.93;100.00
36190;BME280;22232;50.914;13.858;2024-01-07T06:21:42;97787.81;;;-2.95;100.00
36190;BME280;22232;50.914;13.858;2024-01-07T06:24:10;97789.97;;;-2.90;100.00
36190;BME280;22232;50.914;13.858;2024-01-07T06:26:38;97795.09;;;-2.98;100.00
36190;BME280;22232;50.914;13.858;2024-01-07T06:29:06;97795.03;;;-3.07;100.00
36190;BME280;22232;50.914;13.858;2024-01-07T06:31:33;97800.53;;;-3.10;100.00
36190;BME280;22232;50.914;13.858;2024-01-07T06:34:01;97803.09;;;-3.00;100.00
36190;BME280;22232;50.914;13.858;2024-01-07T06:36:29;97811.84;;;-3.19;100.00
36190;BME280;22232;50.914;13.858;2024-01-07T06:38:57;97809.16;;;-3.37;100.00
36190;BME280;22232;50.914;13.858;2024-01-07T06:41:24;97814.66;;;-3.40;100.00
36190;BME280;22232;50.914;13.858;2024-01-07T06:43:52;97806.78;;;-3.30;100.00
36190;BME280;22232;50.914;13.858;2024-01-07T06:46:21;97810.53;;;-3.42;100.00
36190;BME280;22232;50.914;13.858;2024-01-07T06:48:49;97820.56;;;-3.48;100.00
36190;BME280;22232;50.914;13.858;2024-01-07T06:51:18;97817.63;;;-3.35;100.00
36190;BME280;22232;50.914;13.858;2024-01-07T06:53:45;97826.84;;;-3.31;100.00
36190;BME280;22232;50.914;13.858;2024-01-07T06:56:13;97826.44;;;-3.36;100.00
36190;BME280;22232;50.914;13.858;2024-01-07T06:58:42;97838.94;;;-3.39;100.00
36190;BME280;22232;50.914;13.858;2024-01-07T07:01:09;97838.13;;;-3.40;100.00
36190;BME280;22232;50.914;13.858;2024-01-07T07:03:37;97834.81;;;-3.42;100.00
36190;BME280;22232;50.914;13.858;2024-01-07T07:06:05;97853.81;;;-3.50;100.00
36190;BME280;22232;50.914;13.858;2024-01-07T07:08:32;97842.00;;;-3.54;100.00
36190;BME280;22232;50.914;13.858;2024-01-07T07:11:01;97852.69;;;-3.57;100.00
36190;BME280;22232;50.914;13.858;2024-01-07T07:13:28;97855.47;;;-3.68;100.00
36190;BME280;22232;50.914;13.858;2024-01-07T07:15:56;97858.06;;;-3.58;100.00
36190;BME280;22232;50.914;13.858;2024-01-07T07:18:23;97857.34;;;-3.51;100.00
36190;BME280;22232;50.914;13.858;2024-01-07T07:20:52;97854.72;;;-3.41;100.00
36190;BME280;22232;50.914;13.858;2024-01-07T07:23:20;97860.81;;;-3.60;100.00
36190;BME280;22232;50.914;13.858;2024-01-07T07:25:47;97856.81;;;-3.54;100.00
36190;BME280;22232;50.914;13.858;2024-01-07T07:28:15;97866.53;;;-3.56;100.00
36190;BME280;22232;50.914;13.858;2024-01-07T07:30:44;97864.78;;;-3.56;100.00
36190;BME280;22232;50.914;13.858;2024-01-07T07:33:16;97858.16;;;-3.50;100.00
36190;BME280;22232;50.914;13.858;2024-01-07T07:35:45;97876.72;;;-3.63;100.00
36190;BME280;22232;50.914;13.858;2024-01-07T07:38:13;97877.81;;;-3.46;100.00
36190;BME280;22232;50.914;13.858;2024-01-07T07:40:42;97884.81;;;-3.47;100.00
36190;BME280;22232;50.914;13.858;2024-01-07T07:43:09;97875.34;;;-3.67;100.00
36190;BME280;22232;50.914;13.858;2024-01-07T07:45:37;97887.16;;;-3.73;100.00
36190;BME280;22232;50.914;13.858;2024-01-07T07:48:05;97898.69;;;-3.75;100.00
36190;BME280;22232;50.914;13.858;2024-01-07T07:50:33;97887.44;;;-3.66;100.00
36190;BME280;22232;50.914;13.858;2024-01-07T07:53:00;97885.38;;;-3.53;100.00
36190;BME280;22232;50.914;13.858;2024-01-07T07:55:28;97902.22;;;-3.47;100.00
36190;BME280;22232;50.914;13.858;2024-01-07T07:57:56;97900.34;;;-3.64;100.00
36190;BME280;22232;50.914;13.858;2024-01-07T08:00:23;97897.44;;;-3.81;100.00
36190;BME280;22232;50.914;13.858;2024-01-07T08:02:51;97912.69;;;-3.76;100.00
36190;BME280;22232;50.914;13.858;2024-01-07T08:05:19;97907.06;;;-3.81;100.00
36190;BME280;22232;50.914;13.858;2024-01-07T08:07:46;97915.53;;;-3.60;100.00
36190;BME280;22232;50.914;13.858;2024-01-07T08:10:14;97912.78;;;-3.49;100.00
36190;BME280;22232;50.914;13.858;2024-01-07T08:12:42;97919.66;;;-3.67;100.00
36190;BME280;22232;50.914;13.858;2024-01-07T08:15:09;97912.41;;;-3.83;100.00
36190;BME280;22232;50.914;13.858;2024-01-07T08:17:37;97918.03;;;-3.68;100.00
36190;BME280;22232;50.914;13.858;2024-01-07T08:20:05;97921.72;;;-3.61;100.00
36190;BME280;22232;50.914;13.858;2024-01-07T08:22:33;97929.00;;;-3.74;100.00
36190;BME280;22232;50.914;13.858;2024-01-07T08:25:01;97926.69;;;-3.77;100.00
36190;BME280;22232;50.914;13.858;2024-01-07T08:27:28;97933.38;;;-3.84;100.00
36190;BME280;22232;50.914;13.858;2024-01-07T08:29:56;97927.63;;;-3.78;100.00
36190;BME280;22232;50.914;13.858;2024-01-07T08:32:24;97930.91;;;-3.66;100.00
36190;BME280;22232;50.914;13.858;2024-01-07T08:34:51;97931.19;;;-3.79;100.00
36190;BME280;22232;50.914;13.858;2024-01-07T08:37:19;97935.97;;;-3.75;100.00
36190;BME280;22232;50.914;13.858;2024-01-07T08:39:47;97937.09;;;-3.67;100.00
36190;BME280;22232;50.914;13.858;2024-01-07T08:42:14;97930.38;;;-3.70;100.00
36190;BME280;22232;50.914;13.858;2024-01-07T08:44:42;97937.91;;;-3.67;100.00
36190;BME280;22232;50.914;13.858;2024-01-07T08:47:10;97942.16;;;-3.66;100.00
36190;BME280;22232;50.914;13.858;2024-01-07T08:49:37;97950.28;;;-3.50;100.00
36190;BME280;22232;50.914;13.858;2024-01-07T08:52:06;97942.31;;;-3.77;100.00
36190;BME280;22232;50.914;13.858;2024-01-07T08:54:33;97953.84;;;-3.70;100.00
36190;BME280;22232;50.914;13.858;2024-01-07T08:57:01;97944.38;;;-3.71;100.00
36190;BME280;22232;50.914;13.858;2024-01-07T08:59:29;97944.78;;;-3.76;100.00
36190;BME280;22232;50.914;13.858;2024-01-07T09:01:57;97958.50;;;-3.74;100.00
36190;BME280;22232;50.914;13.858;2024-01-07T09:04:25;97954.94;;;-3.73;100.00
36190;BME280;22232;50.914;13.858;2024-01-07T09:06:52;97961.50;;;-3.69;100.00
36190;BME280;22232;50.914;13.858;2024-01-07T09:09:20;97956.97;;;-3.66;100.00
36190;BME280;22232;50.914;13.858;2024-01-07T09:11:47;97957.50;;;-4.02;100.00
36190;BME280;22232;50.914;13.858;2024-01-07T09:14:15;97969.31;;;-3.98;100.00
36190;BME280;22232;50.914;13.858;2024-01-07T09:16:43;97971.75;;;-3.96;100.00
36190;BME280;22232;50.914;13.858;2024-01-07T09:19:10;97980.41;;;-3.96;100.00
36190;BME280;22232;50.914;13.858;2024-01-07T09:21:41;97987.28;;;-4.04;100.00
36190;BME280;22232;50.914;13.858;2024-01-07T09:24:09;97976.59;;;-3.92;100.00
36190;BME280;22232;50.914;13.858;2024-01-07T09:26:37;97974.53;;;-3.98;100.00
36190;BME280;22232;50.914;13.858;2024-01-07T09:29:04;97986.03;;;-4.00;100.00
36190;BME280;22232;50.914;13.858;2024-01-07T09:31:32;97982.91;;;-3.84;100.00
36190;BME280;22232;50.914;13.858;2024-01-07T09:34:00;97977.84;;;-3.86;100.00
36190;BME280;22232;50.914;13.858;2024-01-07T09:36:29;97979.34;;;-3.54;100.00
36190;BME280;22232;50.914;13.858;2024-01-07T09:38:57;97985.94;;;-3.60;100.00
36190;BME280;22232;50.914;13.858;2024-01-07T09:41:25;97989.94;;;-3.56;100.00
36190;BME280;22232;50.914;13.858;2024-01-07T09:43:53;97992.53;;;-3.46;100.00
36190;BME280;22232;50.914;13.858;2024-01-07T09:46:22;97990.31;;;-3.60;100.00
36190;BME280;22232;50.914;13.858;2024-01-07T09:48:50;97984.84;;;-3.57;100.00
36190;BME280;22232;50.914;13.858;2024-01-07T09:51:21;97980.16;;;-3.44;100.00
36190;BME280;22232;50.914;13.858;2024-01-07T09:53:53;97978.38;;;-3.73;100.00
36190;BME280;22232;50.914;13.858;2024-01-07T09:56:29;97977.84;;;-3.57;100.00
36190;BME280;22232;50.914;13.858;2024-01-07T09:59:02;97992.13;;;-3.71;100.00
36190;BME280;22232;50.914;13.858;2024-01-07T10:01:31;97988.41;;;-3.49;100.00
36190;BME280;22232;50.914;13.858;2024-01-07T10:03:59;97990.88;;;-3.47;100.00
36190;BME280;22232;50.914;13.858;2024-01-07T10:06:27;97988.09;;;-3.84;100.00
36190;BME280;22232;50.914;13.858;2024-01-07T10:08:54;97995.38;;;-3.98;100.00
36190;BME280;22232;50.914;13.858;2024-01-07T10:11:22;97990.16;;;-3.88;100.00
36190;BME280;22232;50.914;13.858;2024-01-07T10:13:50;97986.31;;;-3.84;100.00
36190;BME280;22232;50.914;13.858;2024-01-07T10:16:20;97999.75;;;-3.98;100.00
36190;BME280;22232;50.914;13.858;2024-01-07T10:18:48;98001.41;;;-3.87;100.00
36190;BME280;22232;50.914;13.858;2024-01-07T10:21:16;97993.41;;;-4.05;100.00
36190;BME280;22232;50.914;13.858;2024-01-07T10:23:43;98009.06;;;-3.96;100.00
36190;BME280;22232;50.914;13.858;2024-01-07T10:26:11;97998.13;;;-3.80;100.00
36190;BME280;22232;50.914;13.858;2024-01-07T10:28:53;97993.75;;;-3.70;100.00
36190;BME280;22232;50.914;13.858;2024-01-07T10:31:22;97991.66;;;-3.95;100.00
36190;BME280;22232;50.914;13.858;2024-01-07T10:33:50;97991.25;;;-3.90;100.00
36190;BME280;22232;50.914;13.858;2024-01-07T10:36:18;97997.44;;;-3.82;100.00
36190;BME280;22232;50.914;13.858;2024-01-07T10:38:48;98004.72;;;-3.76;100.00
36190;BME280;22232;50.914;13.858;2024-01-07T10:41:18;98013.91;;;-3.81;100.00
36190;BME280;22232;50.914;13.858;2024-01-07T10:43:49;98004.19;;;-3.70;100.00
36190;BME280;22232;50.914;13.858;2024-01-07T10:46:18;98017.91;;;-3.67;100.00
36190;BME280;22232;50.914;13.858;2024-01-07T10:48:59;98023.75;;;-3.95;100.00
36190;BME280;22232;50.914;13.858;2024-01-07T10:51:28;98020.34;;;-3.95;100.00
36190;BME280;22232;50.914;13.858;2024-01-07T10:53:56;98003.63;;;-3.83;100.00
36190;BME280;22232;50.914;13.858;2024-01-07T10:56:25;97998.41;;;-3.83;100.00
36190;BME280;22232;50.914;13.858;2024-01-07T10:59:00;98010.19;;;-3.98;100.00
36190;BME280;22232;50.914;13.858;2024-01-07T11:01:27;98009.19;;;-4.07;100.00
36190;BME280;22232;50.914;13.858;2024-01-07T11:04:17;98007.94;;;-4.12;100.00
36190;BME280;22232;50.914;13.858;2024-01-07T11:07:00;98011.38;;;-4.02;100.00
36190;BME280;22232;50.914;13.858;2024-01-07T11:09:36;98007.41;;;-4.06;100.00
36190;BME280;22232;50.914;13.858;2024-01-07T11:12:07;98014.94;;;-4.13;100.00
36190;BME280;22232;50.914;13.858;2024-01-07T11:14:36;98011.81;;;-3.97;100.00
36190;BME280;22232;50.914;13.858;2024-01-07T11:17:04;98019.72;;;-4.08;100.00
36190;BME280;22232;50.914;13.858;2024-01-07T11:19:32;98015.22;;;-4.06;100.00
36190;BME280;22232;50.914;13.858;2024-01-07T11:22:28;98021.22;;;-4.25;100.00
36190;BME280;22232;50.914;13.858;2024-01-07T11:24:58;98026.94;;;-4.31;100.00
36190;BME280;22232;50.914;13.858;2024-01-07T11:27:29;98031.34;;;-4.22;100.00
36190;BME280;22232;50.914;13.858;2024-01-07T11:30:06;98024.44;;;-4.33;100.00
36190;BME280;22232;50.914;13.858;2024-01-07T11:32:35;98027.09;;;-4.23;100.00
36190;BME280;22232;50.914;13.858;2024-01-07T11:35:03;98025.44;;;-4.24;100.00
36190;BME280;22232;50.914;13.858;2024-01-07T11:37:31;98029.84;;;-4.25;100.00
36190;BME280;22232;50.914;13.858;2024-01-07T11:39:59;98032.72;;;-4.18;100.00
36190;BME280;22232;50.914;13.858;2024-01-07T11:42:27;98025.00;;;-4.29;99.18
36190;BME280;22232;50.914;13.858;2024-01-07T11:44:55;98028.13;;;-4.35;97.49
36190;BME280;22232;50.914;13.858;2024-01-07T11:47:23;98024.72;;;-4.36;97.82
36190;BME280;22232;50.914;13.858;2024-01-07T11:49:52;98025.16;;;-4.31;97.23
36190;BME280;22232;50.914;13.858;2024-01-07T11:52:21;98039.09;;;-4.01;96.27
36190;BME280;22232;50.914;13.858;2024-01-07T11:54:49;98037.22;;;-4.30;95.41
36190;BME280;22232;50.914;13.858;2024-01-07T11:57:16;98035.84;;;-4.34;94.65
36190;BME280;22232;50.914;13.858;2024-01-07T11:59:44;98033.47;;;-4.06;94.12
36190;BME280;22232;50.914;13.858;2024-01-07T12:02:12;98035.97;;;-3.95;96.09
36190;BME280;22232;50.914;13.858;2024-01-07T12:04:39;98036.50;;;-4.01;93.21
36190;BME280;22232;50.914;13.858;2024-01-07T12:07:07;98040.31;;;-3.96;91.46
36190;BME280;22232;50.914;13.858;2024-01-07T12:09:36;98039.56;;;-3.77;93.81
36190;BME280;22232;50.914;13.858;2024-01-07T12:12:04;98049.06;;;-4.16;89.29
36190;BME280;22232;50.914;13.858;2024-01-07T12:14:32;98043.25;;;-3.79;91.37
36190;BME280;22232;50.914;13.858;2024-01-07T12:17:01;98045.38;;;-4.13;88.32
36190;BME280;22232;50.914;13.858;2024-01-07T12:19:28;98054.47;;;-3.98;89.13
36190;BME280;22232;50.914;13.858;2024-01-07T12:22:05;98050.97;;;-3.68;90.37
36190;BME280;22232;50.914;13.858;2024-01-07T12:24:33;98057.53;;;-3.83;89.08
36190;BME280;22232;50.914;13.858;2024-01-07T12:27:06;98059.75;;;-3.59;90.70
36190;BME280;22232;50.914;13.858;2024-01-07T12:29:33;98066.88;;;-3.71;89.60
36190;BME280;22232;50.914;13.858;2024-01-07T12:32:02;98066.19;;;-3.73;89.48
36190;BME280;22232;50.914;13.858;2024-01-07T12:34:31;98069.34;;;-3.60;88.82
36190;BME280;22232;50.914;13.858;2024-01-07T12:36:59;98075.91;;;-3.75;89.28
36190;BME280;22232;50.914;13.858;2024-01-07T12:39:27;98073.28;;;-3.85;91.35
36190;BME280;22232;50.914;13.858;2024-01-07T12:41:55;98072.13;;;-4.02;91.83
36190;BME280;22232;50.914;13.858;2024-01-07T12:44:28;98075.50;;;-4.11;92.02
36190;BME280;22232;50.914;13.858;2024-01-07T12:46:56;98089.31;;;-4.20;93.05